createdAt,value
2019-04-28T00:01:24.794Z,75.48
2019-04-28T00:03:54.700Z,76.49
2019-04-28T00:06:24.656Z,76.36
2019-04-28T00:08:54.588Z,74.19
2019-04-28T00:11:24.559Z,73.80
2019-04-28T00:13:54.557Z,75.43
2019-04-28T00:16:24.748Z,76.94
2019-04-28T00:18:54.617Z,77.85
2019-04-28T00:21:34.125Z,78.53
2019-04-28T00:24:13.045Z,78.68
2019-04-28T00:26:51.939Z,78.51
2019-04-28T00:29:21.754Z,77.95
2019-04-28T00:31:51.615Z,77.49
2019-04-28T00:34:21.614Z,74.99
2019-04-28T00:36:57.022Z,74.12
2019-04-28T00:39:27.001Z,73.30
2019-04-28T00:41:56.898Z,72.55
2019-04-28T00:44:27.240Z,72.01
2019-04-28T00:46:57.140Z,71.66
2019-04-28T00:49:45.143Z,74.62
2019-04-28T00:52:16.005Z,72.17
2019-04-28T00:54:46.527Z,72.20
2019-04-28T00:57:16.776Z,72.05
2019-04-28T00:59:55.139Z,72.22
2019-04-28T01:02:31.169Z,71.30
2019-04-28T01:05:01.847Z,71.15
2019-04-28T01:07:33.188Z,70.85
2019-04-28T01:10:04.366Z,70.49
2019-04-28T01:12:34.472Z,70.51
2019-04-28T01:15:07.627Z,71.22
2019-04-28T01:18:03.173Z,70.63
2019-04-28T01:20:33.157Z,70.39
2019-04-28T01:23:03.041Z,70.10
2019-04-28T01:25:32.947Z,70.91
2019-04-28T01:28:02.788Z,70.28
2019-04-28T01:30:52.372Z,69.26
2019-04-28T01:33:32.349Z,69.35
2019-04-28T01:36:02.231Z,69.47
2019-04-28T01:38:32.228Z,69.49
2019-04-28T01:41:02.229Z,68.76
2019-04-28T01:43:32.098Z,68.73
2019-04-28T01:46:02.109Z,70.45
2019-04-28T01:48:32.064Z,70.89
2019-04-28T01:51:01.955Z,70.61
2019-04-28T01:53:31.836Z,69.52
2019-04-28T01:56:01.731Z,69.43
2019-04-28T01:58:31.671Z,69.76
2019-04-28T02:01:01.577Z,69.32
2019-04-28T02:03:31.552Z,69.86
2019-04-28T02:06:01.555Z,69.08
2019-04-28T02:08:31.402Z,69.60
2019-04-28T02:11:01.249Z,70.29
2019-04-28T02:13:32.314Z,70.62
2019-04-28T02:16:03.198Z,70.14
2019-04-28T02:18:33.175Z,70.37
2019-04-28T02:21:11.242Z,69.70
2019-04-28T02:23:41.223Z,69.62
2019-04-28T02:26:11.213Z,69.30
2019-04-28T02:28:41.130Z,70.17
2019-04-28T02:31:11.597Z,70.97
2019-04-28T02:33:41.576Z,70.46
2019-04-28T02:36:12.343Z,70.30
2019-04-28T02:38:42.392Z,69.51
2019-04-28T02:41:12.378Z,69.58
2019-04-28T02:43:42.300Z,70.14
2019-04-28T02:46:12.426Z,68.42
2019-04-28T02:48:42.371Z,67.42
2019-04-28T02:51:35.879Z,67.65
2019-04-28T02:54:05.897Z,67.79
2019-04-28T02:56:35.835Z,68.77
2019-04-28T02:59:05.764Z,68.03
2019-04-28T03:01:35.763Z,66.94
2019-04-28T03:04:05.663Z,67.11
2019-04-28T03:06:35.637Z,68.03
2019-04-28T03:09:06.897Z,67.68
2019-04-28T03:11:36.861Z,67.67
2019-04-28T03:14:06.854Z,67.94
2019-04-28T03:16:36.964Z,67.07
2019-04-28T03:19:06.965Z,67.11
2019-04-28T03:21:36.929Z,66.77
2019-04-28T03:24:07.871Z,67.19
2019-04-28T03:26:44.326Z,66.26
2019-04-28T03:29:42.386Z,67.51
2019-04-28T03:32:40.181Z,66.10
2019-04-28T03:35:02.852Z,66.77
2019-04-28T03:37:31.569Z,67.53
2019-04-28T03:40:01.739Z,66.61
2019-04-28T03:42:32.743Z,65.43
2019-04-28T03:45:04.331Z,66.08
2019-04-28T03:47:34.305Z,65.66
2019-04-28T03:50:04.552Z,66.84
2019-04-28T03:52:34.508Z,66.38
2019-04-28T03:55:04.746Z,65.77
2019-04-28T03:57:34.683Z,66.23
2019-04-28T04:00:06.376Z,65.85
2019-04-28T04:02:36.259Z,67.33
2019-04-28T04:05:10.857Z,67.94
2019-04-28T04:07:42.727Z,68.21
2019-04-28T04:10:27.104Z,68.10
2019-04-28T04:13:11.010Z,67.91
2019-04-28T04:15:53.528Z,67.69
2019-04-28T04:18:25.579Z,67.04
2019-04-28T04:20:55.582Z,66.97
2019-04-28T04:23:25.520Z,66.40
2019-04-28T04:25:55.424Z,66.57
2019-04-28T04:28:25.362Z,66.26
2019-04-28T04:30:55.349Z,67.75
2019-04-28T04:33:25.249Z,67.94
2019-04-28T04:35:55.089Z,67.64
2019-04-28T04:38:24.944Z,67.41
2019-04-28T04:40:54.881Z,66.29
2019-04-28T04:43:24.782Z,65.95
2019-04-28T04:46:14.561Z,65.44
2019-04-28T04:48:44.985Z,65.44
2019-04-28T04:51:15.178Z,65.16
2019-04-28T04:53:45.095Z,65.48
2019-04-28T04:56:15.111Z,66.04
2019-04-28T04:58:45.067Z,66.01
2019-04-28T05:01:34.008Z,65.67
2019-04-28T05:04:16.286Z,66.13
2019-04-28T05:06:46.211Z,65.67
2019-04-28T05:09:16.218Z,64.68
2019-04-28T05:11:46.222Z,64.29
2019-04-28T05:14:16.151Z,64.27
2019-04-28T05:16:46.148Z,64.84
2019-04-28T05:19:16.059Z,63.75
2019-04-28T05:21:45.961Z,63.32
2019-04-28T05:24:26.170Z,64.07
2019-04-28T05:26:56.069Z,63.84
2019-04-28T05:29:28.152Z,63.33
2019-04-28T05:31:59.880Z,63.44
2019-04-28T05:34:29.887Z,62.06
2019-04-28T05:37:00.703Z,62.60
2019-04-28T05:39:31.890Z,61.72
2019-04-28T05:42:01.808Z,61.88
2019-04-28T05:44:32.013Z,63.29
2019-04-28T05:47:02.129Z,62.38
2019-04-28T05:50:06.150Z,61.36
2019-04-28T05:53:00.854Z,60.14
2019-04-28T05:55:39.333Z,59.63
2019-04-28T05:58:19.745Z,58.94
2019-04-28T06:01:00.223Z,58.86
2019-04-28T06:03:30.787Z,57.42
2019-04-28T06:06:00.693Z,57.39
2019-04-28T06:09:01.703Z,57.89
2019-04-28T06:11:35.282Z,56.46
2019-04-28T06:14:05.643Z,56.68
2019-04-28T06:16:35.652Z,57.00
2019-04-28T06:19:05.577Z,57.58
2019-04-28T06:21:35.577Z,57.21
2019-04-28T06:24:05.561Z,57.24
2019-04-28T06:26:35.465Z,57.62
2019-04-28T06:29:06.450Z,56.46
2019-04-28T06:31:36.463Z,57.03
2019-04-28T06:34:06.502Z,56.58
2019-04-28T06:36:36.375Z,56.15
2019-04-28T06:39:08.876Z,56.10
2019-04-28T06:41:38.844Z,57.39
2019-04-28T06:44:08.843Z,57.19
2019-04-28T06:46:38.666Z,57.64
2019-04-28T06:49:08.593Z,57.10
2019-04-28T06:51:38.606Z,56.46
2019-04-28T06:54:08.680Z,55.36
2019-04-28T06:56:38.650Z,54.96
2019-04-28T06:59:08.633Z,55.74
2019-04-28T07:01:38.594Z,55.61
2019-04-28T07:04:08.446Z,54.83
2019-04-28T07:06:38.380Z,54.30
2019-04-28T07:09:08.845Z,53.99
2019-04-28T07:11:38.791Z,54.50
2019-04-28T07:14:08.687Z,54.57
2019-04-28T07:16:38.607Z,54.43
2019-04-28T07:19:08.534Z,55.55
2019-04-28T07:21:53.780Z,54.42
2019-04-28T07:24:23.723Z,54.06
2019-04-28T07:26:53.711Z,54.27
2019-04-28T07:29:23.642Z,53.80
2019-04-28T07:31:53.567Z,54.15
2019-04-28T07:34:23.514Z,54.20
2019-04-28T07:36:53.439Z,53.80
2019-04-28T07:39:23.287Z,54.68
2019-04-28T07:41:53.285Z,53.88
2019-04-28T07:44:23.130Z,55.15
2019-04-28T07:46:53.072Z,55.39
2019-04-28T07:49:22.916Z,54.90
2019-04-28T07:52:13.576Z,54.07
2019-04-28T07:54:43.559Z,53.49
2019-04-28T07:57:13.576Z,53.07
2019-04-28T07:59:43.391Z,52.85
2019-04-28T08:02:13.440Z,53.48
2019-04-28T08:04:43.433Z,53.64
2019-04-28T08:07:13.416Z,52.53
2019-04-28T08:09:43.318Z,52.77
2019-04-28T08:12:13.340Z,53.68
2019-04-28T08:14:43.336Z,54.44
2019-04-28T08:17:13.166Z,54.87
2019-04-28T08:19:43.153Z,54.57
2019-04-28T08:22:13.070Z,52.95
2019-04-28T08:24:44.061Z,53.04
2019-04-28T08:27:14.026Z,52.53
2019-04-28T08:29:44.025Z,50.56
2019-04-28T08:32:39.359Z,50.37
2019-04-28T08:35:09.731Z,50.29
2019-04-28T08:37:40.726Z,49.17
2019-04-28T08:40:10.805Z,48.69
2019-04-28T08:42:40.700Z,48.33
2019-04-28T08:45:10.691Z,49.38
2019-04-28T08:47:40.540Z,48.57
2019-04-28T08:50:10.776Z,48.80
2019-04-28T08:52:40.769Z,50.51
2019-04-28T08:55:10.917Z,51.49
2019-04-28T08:57:40.905Z,52.63
2019-04-28T09:00:11.895Z,53.55
2019-04-28T09:02:41.805Z,53.24
2019-04-28T09:05:12.004Z,53.32
2019-04-28T09:07:41.841Z,52.64
2019-04-28T09:10:11.837Z,52.67
2019-04-28T09:12:41.755Z,51.31
2019-04-28T09:15:12.248Z,49.49
2019-04-28T09:17:42.226Z,48.23
2019-04-28T09:20:13.214Z,47.72
2019-04-28T09:22:43.153Z,47.77
2019-04-28T09:25:13.143Z,48.65
2019-04-28T09:27:42.982Z,46.99
2019-04-28T09:30:13.428Z,48.54
2019-04-28T09:32:43.439Z,48.18
2019-04-28T09:35:13.754Z,47.90
2019-04-28T09:37:43.732Z,46.54
2019-04-28T09:40:16.103Z,46.51
2019-04-28T09:43:17.196Z,47.39
2019-04-28T09:45:55.955Z,47.37
2019-04-28T09:48:25.883Z,47.23
2019-04-28T09:50:55.918Z,45.66
2019-04-28T09:53:25.886Z,45.03
2019-04-28T09:55:55.873Z,45.79
2019-04-28T09:58:25.781Z,45.73
2019-04-28T10:00:55.728Z,46.09
2019-04-28T10:03:25.687Z,46.85
2019-04-28T10:05:55.660Z,46.15
2019-04-28T10:08:25.615Z,46.32
2019-04-28T10:10:55.539Z,45.49
2019-04-28T10:13:25.592Z,40.86
2019-04-28T10:15:55.629Z,40.07
2019-04-28T10:18:25.555Z,38.53
2019-04-28T10:20:55.455Z,38.10
2019-04-28T10:23:25.389Z,40.07
2019-04-28T10:25:55.376Z,39.94
2019-04-28T10:28:25.401Z,41.04
2019-04-28T10:30:55.407Z,41.58
2019-04-28T10:33:25.398Z,40.96
2019-04-28T10:35:55.328Z,40.26
2019-04-28T10:38:25.323Z,40.04
2019-04-28T10:41:11.977Z,38.99
2019-04-28T10:43:41.926Z,39.57
2019-04-28T10:46:11.921Z,39.85
2019-04-28T10:48:41.924Z,38.94
2019-04-28T10:51:11.850Z,38.25
2019-04-28T10:53:41.790Z,36.97
2019-04-28T10:56:11.810Z,39.38
2019-04-28T10:58:44.276Z,39.26
2019-04-28T11:01:14.199Z,40.14
2019-04-28T11:03:46.139Z,40.15
2019-04-28T11:06:16.111Z,42.69
2019-04-28T11:09:04.088Z,43.86
2019-04-28T11:11:35.695Z,44.73
2019-04-28T11:14:05.811Z,44.52
2019-04-28T11:16:36.655Z,44.76
2019-04-28T11:19:07.778Z,43.19
2019-04-28T11:21:37.854Z,43.57
2019-04-28T11:24:08.127Z,43.39
2019-04-28T11:26:38.139Z,43.71
2019-04-28T11:29:08.206Z,44.54
2019-04-28T11:31:38.192Z,46.21
2019-04-28T11:34:39.438Z,47.44
2019-04-28T11:37:09.365Z,46.89
2019-04-28T11:39:41.094Z,45.55
2019-04-28T11:42:11.115Z,45.72
2019-04-28T11:44:41.126Z,45.71
2019-04-28T11:47:13.542Z,45.87
2019-04-28T11:49:43.680Z,45.96
2019-04-28T11:52:13.650Z,46.54
2019-04-28T11:54:43.871Z,46.03
2019-04-28T11:57:13.808Z,45.46
2019-04-28T11:59:43.943Z,45.90
2019-04-28T12:02:13.954Z,45.33
2019-04-28T12:04:44.073Z,45.57
2019-04-28T12:07:14.119Z,44.83
2019-04-28T12:10:03.754Z,44.89
2019-04-28T12:12:58.747Z,41.90
2019-04-28T12:15:45.724Z,40.91
2019-04-28T12:18:37.559Z,39.96
2019-04-28T12:21:07.517Z,40.01
2019-04-28T12:23:38.446Z,40.62
2019-04-28T12:26:08.398Z,40.84
2019-04-28T12:28:38.248Z,41.27
2019-04-28T12:31:08.347Z,41.44
2019-04-28T12:33:39.866Z,41.80
2019-04-28T12:36:09.991Z,40.90
2019-04-28T12:38:39.928Z,41.70
2019-04-28T12:41:09.874Z,42.59
2019-04-28T12:43:39.794Z,44.40
2019-04-28T12:46:09.708Z,45.63
2019-04-28T12:48:39.617Z,45.49
2019-04-28T12:51:09.754Z,45.46
2019-04-28T12:53:39.953Z,46.06
2019-04-28T12:56:09.903Z,44.55
2019-04-28T12:58:39.918Z,43.97
2019-04-28T13:01:21.528Z,45.03
2019-04-28T13:04:13.496Z,44.40
2019-04-28T13:07:00.705Z,43.74
2019-04-28T13:09:30.742Z,45.57
2019-04-28T13:12:00.850Z,44.51
2019-04-28T13:14:30.832Z,46.10
2019-04-28T13:17:00.793Z,47.94
2019-04-28T13:19:30.743Z,47.54
2019-04-28T13:22:00.715Z,49.18
2019-04-28T13:24:30.677Z,50.28
2019-04-28T13:27:00.582Z,51.11
2019-04-28T13:29:30.532Z,51.37
2019-04-28T13:32:00.592Z,53.18
2019-04-28T13:34:32.185Z,52.73
2019-04-28T13:37:02.191Z,51.71
2019-04-28T13:39:40.223Z,49.09
2019-04-28T13:42:10.162Z,48.16
2019-04-28T13:44:56.847Z,45.29
2019-04-28T13:47:26.783Z,46.59
2019-04-28T13:50:01.665Z,46.17
2019-04-28T13:52:31.630Z,44.48
2019-04-28T13:55:22.630Z,44.64
2019-04-28T13:57:52.678Z,43.11
2019-04-28T14:00:29.542Z,43.20
2019-04-28T14:03:12.239Z,42.55
2019-04-28T14:05:56.500Z,42.33
2019-04-28T14:08:26.425Z,41.90
2019-04-28T14:10:56.485Z,43.00
2019-04-28T14:13:27.436Z,43.86
2019-04-28T14:15:57.485Z,45.21
2019-04-28T14:18:27.416Z,44.89
2019-04-28T14:20:57.477Z,45.03
2019-04-28T14:23:27.596Z,45.71
2019-04-28T14:25:57.603Z,45.42
2019-04-28T14:28:27.513Z,45.46
2019-04-28T14:30:57.433Z,44.95
2019-04-28T14:33:27.358Z,43.16
2019-04-28T14:35:57.464Z,42.67
2019-04-28T14:38:27.499Z,41.97
2019-04-28T14:40:58.633Z,43.26
2019-04-28T14:43:28.515Z,44.56
2019-04-28T14:45:58.387Z,43.19
2019-04-28T14:48:28.444Z,46.75
2019-04-28T14:50:58.486Z,44.28
2019-04-28T14:53:28.449Z,45.77
2019-04-28T14:55:58.457Z,45.32
2019-04-28T14:58:28.396Z,46.80
2019-04-28T15:01:03.731Z,47.12
2019-04-28T15:03:35.341Z,50.18
2019-04-28T15:06:30.104Z,51.69
2019-04-28T15:09:21.653Z,53.92
2019-04-28T15:11:57.792Z,55.07
2019-04-28T15:14:27.797Z,54.36
2019-04-28T15:16:57.711Z,52.99
2019-04-28T15:19:27.644Z,52.51
2019-04-28T15:21:57.982Z,49.95
2019-04-28T15:24:29.456Z,49.94
2019-04-28T15:26:59.440Z,50.24
2019-04-28T15:29:29.277Z,48.60
2019-04-28T15:31:59.195Z,46.79
2019-04-28T15:34:29.116Z,47.48
2019-04-28T15:37:09.513Z,47.55
2019-04-28T15:39:30.702Z,47.44
2019-04-28T15:42:00.731Z,47.63
2019-04-28T15:44:30.658Z,46.26
2019-04-28T15:47:00.636Z,46.38
2019-04-28T15:49:30.546Z,45.98
2019-04-28T15:52:00.509Z,45.89
2019-04-28T15:54:30.479Z,45.70
2019-04-28T15:57:00.386Z,45.66
2019-04-28T15:59:30.304Z,44.45
2019-04-28T16:02:00.326Z,44.59
2019-04-28T16:04:30.196Z,43.65
2019-04-28T16:07:00.202Z,44.20
2019-04-28T16:09:30.166Z,42.36
2019-04-28T16:12:00.116Z,42.23
2019-04-28T16:14:30.268Z,42.70
2019-04-28T16:17:00.298Z,42.28
2019-04-28T16:19:31.332Z,41.58
2019-04-28T16:22:01.234Z,41.85
2019-04-28T16:24:31.171Z,42.08
2019-04-28T16:27:00.996Z,41.55
2019-04-28T16:29:30.829Z,41.42
2019-04-28T16:32:00.824Z,41.38
2019-04-28T16:34:30.817Z,41.23
2019-04-28T16:37:01.839Z,40.56
2019-04-28T16:39:31.760Z,41.53
2019-04-28T16:42:02.737Z,41.27
2019-04-28T16:44:33.678Z,42.22
2019-04-28T16:47:03.696Z,42.21
2019-04-28T16:49:33.608Z,43.36
2019-04-28T16:52:03.547Z,43.59
2019-04-28T16:54:33.541Z,51.57
2019-04-28T16:57:10.420Z,54.39
2019-04-28T16:59:50.236Z,54.58
2019-04-28T17:02:31.569Z,55.33
2019-04-28T17:05:01.480Z,55.88
2019-04-28T17:07:31.496Z,56.51
2019-04-28T17:10:01.445Z,56.88
2019-04-28T17:12:31.342Z,56.74
2019-04-28T17:15:01.250Z,57.59
2019-04-28T17:17:31.621Z,58.30
2019-04-28T17:20:01.639Z,59.37
2019-04-28T17:22:32.820Z,59.86
2019-04-28T17:25:02.796Z,60.46
2019-04-28T17:27:33.037Z,61.01
2019-04-28T17:30:03.323Z,60.54
2019-04-28T17:32:34.300Z,59.64
2019-04-28T17:35:04.308Z,60.88
2019-04-28T17:37:34.211Z,61.27
2019-04-28T17:40:04.799Z,61.31
2019-04-28T17:42:36.304Z,61.95
2019-04-28T17:45:06.774Z,61.04
2019-04-28T17:47:36.728Z,61.69
2019-04-28T17:50:07.123Z,61.77
2019-04-28T17:52:37.084Z,62.46
2019-04-28T17:55:07.188Z,62.21
2019-04-28T17:57:38.025Z,62.47
2019-04-28T18:00:21.497Z,62.80
2019-04-28T18:03:14.456Z,62.74
2019-04-28T18:05:58.965Z,63.80
2019-04-28T18:08:28.862Z,63.96
2019-04-28T18:10:58.856Z,64.50
2019-04-28T18:13:28.754Z,64.59
2019-04-28T18:16:23.448Z,64.02
2019-04-28T18:19:00.107Z,64.90
2019-04-28T18:21:30.006Z,64.44
2019-04-28T18:23:59.900Z,64.87
2019-04-28T18:26:29.870Z,64.57
2019-04-28T18:28:59.795Z,65.17
2019-04-28T18:31:48.707Z,64.98
2019-04-28T18:34:40.520Z,63.92
2019-04-28T18:37:20.686Z,63.33
2019-04-28T18:40:04.447Z,63.38
2019-04-28T18:42:42.504Z,62.94
2019-04-28T18:45:13.092Z,63.13
2019-04-28T18:47:43.092Z,63.24
2019-04-28T18:50:13.089Z,63.01
2019-04-28T18:52:42.996Z,62.39
2019-04-28T18:55:13.079Z,62.53
2019-04-28T18:57:43.144Z,63.44
2019-04-28T19:00:13.211Z,63.54
2019-04-28T19:02:45.449Z,63.71
2019-04-28T19:05:15.557Z,63.83
2019-04-28T19:08:13.639Z,64.33
2019-04-28T19:10:51.136Z,64.58
2019-04-28T19:13:24.708Z,65.26
2019-04-28T19:16:05.845Z,65.65
2019-04-28T19:18:37.936Z,65.40
2019-04-28T19:21:07.843Z,65.31
2019-04-28T19:23:38.905Z,65.06
2019-04-28T19:26:08.879Z,64.76
2019-04-28T19:28:38.761Z,65.41
2019-04-28T19:31:08.586Z,65.36
2019-04-28T19:33:38.554Z,65.28
2019-04-28T19:36:08.457Z,66.11
2019-04-28T19:38:38.269Z,65.76
2019-04-28T19:41:08.200Z,65.12
2019-04-28T19:43:38.129Z,65.13
2019-04-28T19:46:11.228Z,65.27
2019-04-28T19:48:41.113Z,65.15
2019-04-28T19:51:11.008Z,64.86
2019-04-28T19:53:40.900Z,65.13
2019-04-28T19:56:20.844Z,64.92
2019-04-28T19:58:55.205Z,64.83
2019-04-28T20:01:27.009Z,64.52
2019-04-28T20:03:56.982Z,64.57
2019-04-28T20:06:26.939Z,64.66
2019-04-28T20:08:56.906Z,65.13
2019-04-28T20:11:26.913Z,64.68
2019-04-28T20:13:57.978Z,64.61
2019-04-28T20:16:27.827Z,64.90
2019-04-28T20:18:58.815Z,65.07
2019-04-28T20:21:28.793Z,64.76
2019-04-28T20:23:58.700Z,64.29
2019-04-28T20:26:28.790Z,64.90
2019-04-28T20:28:58.611Z,65.00
2019-04-28T20:31:28.881Z,65.17
2019-04-28T20:33:58.905Z,65.63
2019-04-28T20:36:39.557Z,65.17
2019-04-28T20:39:14.164Z,65.02
2019-04-28T20:41:45.660Z,64.90
2019-04-28T20:44:15.523Z,64.28
2019-04-28T20:46:45.445Z,64.04
2019-04-28T20:49:15.290Z,64.07
2019-04-28T20:51:45.106Z,64.61
2019-04-28T20:54:15.035Z,64.97
2019-04-28T20:56:44.924Z,65.78
2019-04-28T20:59:15.989Z,66.53
2019-04-28T21:01:45.994Z,67.25
2019-04-28T21:04:15.812Z,67.90
2019-04-28T21:06:45.689Z,69.23
2019-04-28T21:09:15.583Z,69.24
2019-04-28T21:11:45.508Z,70.30
2019-04-28T21:14:15.434Z,70.45
2019-04-28T21:16:45.354Z,70.76
2019-04-28T21:19:15.189Z,70.98
2019-04-28T21:21:45.098Z,71.43
2019-04-28T21:24:16.967Z,71.38
2019-04-28T21:26:46.540Z,71.74
2019-04-28T21:29:16.442Z,71.80
2019-04-28T21:31:46.443Z,72.30
2019-04-28T21:34:16.279Z,72.26
2019-04-28T21:36:46.186Z,72.49
2019-04-28T21:39:16.108Z,73.01
2019-04-28T21:41:45.961Z,73.26
2019-04-28T21:44:40.837Z,72.71
2019-04-28T21:47:17.613Z,72.21
2019-04-28T21:49:47.590Z,71.81
2019-04-28T21:52:17.497Z,72.24
2019-04-28T21:54:47.344Z,72.85
2019-04-28T21:57:17.234Z,73.37
2019-04-28T21:59:47.126Z,73.47
2019-04-28T22:02:17.032Z,73.58
2019-04-28T22:04:47.243Z,73.63
2019-04-28T22:07:17.315Z,74.13
2019-04-28T22:09:47.142Z,74.21
2019-04-28T22:12:16.990Z,74.20
2019-04-28T22:14:46.867Z,74.56
2019-04-28T22:17:16.786Z,75.23
2019-04-28T22:19:46.742Z,74.63
2019-04-28T22:22:16.657Z,74.57
2019-04-28T22:24:52.517Z,74.25
2019-04-28T22:27:27.651Z,74.46
2019-04-28T22:29:57.650Z,74.82
2019-04-28T22:32:28.452Z,75.18
2019-04-28T22:34:58.417Z,74.58
2019-04-28T22:37:28.309Z,74.62
2019-04-28T22:39:58.138Z,74.61
2019-04-28T22:42:28.164Z,75.24
2019-04-28T22:44:58.082Z,73.02
2019-04-28T22:47:27.985Z,73.36
2019-04-28T22:49:57.919Z,71.52
2019-04-28T22:52:27.866Z,71.92
2019-04-28T22:55:16.748Z,72.50
2019-04-28T22:57:59.116Z,71.53
2019-04-28T23:00:57.306Z,70.46
2019-04-28T23:03:55.519Z,70.46
2019-04-28T23:06:25.706Z,69.84
2019-04-28T23:08:55.654Z,69.99
2019-04-28T23:11:25.681Z,70.71
2019-04-28T23:13:55.658Z,69.38
2019-04-28T23:16:25.626Z,69.10
2019-04-28T23:18:55.865Z,68.49
2019-04-28T23:21:39.277Z,68.71
2019-04-28T23:24:09.308Z,68.83
2019-04-28T23:26:39.184Z,68.94
2019-04-28T23:29:09.176Z,69.62
2019-04-28T23:31:39.085Z,69.80
2019-04-28T23:34:08.969Z,69.30
2019-04-28T23:36:38.949Z,69.35
2019-04-28T23:39:09.304Z,68.70
2019-04-28T23:42:02.475Z,68.25
2019-04-28T23:44:32.463Z,68.42
2019-04-28T23:47:03.760Z,67.65
2019-04-28T23:49:33.649Z,67.20
2019-04-28T23:52:25.292Z,67.44
2019-04-28T23:54:57.213Z,68.34
2019-04-28T23:57:27.124Z,68.91
2019-04-28T23:59:56.937Z,68.65
